Airport View

Enter AWOS ICAO identifier for current METAR.

ex. KFNL

KABI 261152Z 15006KT 10SM CLR 21/19 A3006 RMK AO2 SLP153 T02060194 10244 20206 53007

26 Jun 2019 12:41

Phone: 325-676-6367

Other Area AWOS: KDYS - KGZN - KCOM - KSWW

TAF KABI 261120Z 2612/2712 16005KT P6SM SKC FM261800 19011G17KT P6SM SCT250 FM270200 14009KT P6SM SKC